Time;durP1;ratioP1;P1;durP2;ratioP2;P2;SDS_P1;SDS_P2;PMS_P1;PMS_P2;Temp;Humidity;BMP_temperature;BMP_pressure;BME280_temperature;BME280_humidity;BME280_pressure;Samples;Min_cycle;Max_cycle;Signal;HPM_P1;HPM_P2
2022/11/23 00:04:46;;;;;;;14.82;10.65;;;;;;;8.07;100.00;99445.81;10586877;28;20027;-68
2022/11/23 00:09:47;;;;;;;18.17;9.73;;;;;;;8.09;100.00;99449.13;10586841;28;20042;-68
2022/11/23 00:14:47;;;;;;;20.80;10.27;;;;;;;8.12;100.00;99455.94;10586065;28;20085;-68
2022/11/23 00:19:47;;;;;;;15.48;9.90;;;;;;;8.08;100.00;99452.88;10586128;28;20051;-68
2022/11/23 00:24:48;;;;;;;11.90;9.75;;;;;;;8.07;100.00;99448.53;10584591;28;20071;-68
2022/11/23 00:29:48;;;;;;;12.48;8.73;;;;;;;8.07;100.00;99451.22;10584615;28;20020;-68
2022/11/23 00:34:49;;;;;;;18.60;7.00;;;;;;;8.01;100.00;99462.88;10550014;28;20543;-68
2022/11/23 00:39:49;;;;;;;9.18;7.68;;;;;;;7.99;100.00;99475.72;10567511;28;20036;-68
2022/11/23 00:44:49;;;;;;;10.07;7.82;;;;;;;8.00;100.00;99476.53;10584990;28;20088;-69
2022/11/23 00:49:50;;;;;;;20.48;10.88;;;;;;;8.04;100.00;99477.75;10584769;28;20467;-70
2022/11/23 00:54:50;;;;;;;20.08;12.57;;;;;;;8.08;100.00;99468.22;10584392;28;20031;-70
2022/11/23 00:59:50;;;;;;;16.83;12.52;;;;;;;8.01;100.00;99478.19;10584498;28;20051;-70
2022/11/23 01:04:51;;;;;;;17.63;14.30;;;;;;;8.00;100.00;99466.59;10565563;28;20054;-70
2022/11/23 01:09:51;;;;;;;22.23;9.30;;;;;;;8.00;100.00;99479.25;10583331;28;20131;-70
2022/11/23 01:14:52;;;;;;;18.50;12.13;;;;;;;8.01;100.00;99475.50;10585317;28;20027;-70
2022/11/23 01:19:53;;;;;;;21.48;13.05;;;;;;;8.05;100.00;99474.03;10564836;28;20049;-70
2022/11/23 01:24:53;;;;;;;17.42;11.70;;;;;;;8.10;100.00;99485.84;10586109;28;20027;-70
2022/11/23 01:29:54;;;;;;;15.93;10.27;;;;;;;8.13;100.00;99481.84;10583411;28;20062;-70
2022/11/23 01:34:54;;;;;;;18.73;11.18;;;;;;;8.07;100.00;99478.19;10582860;28;20115;-70
2022/11/23 01:39:54;;;;;;;23.48;10.77;;;;;;;8.07;100.00;99488.13;10582862;28;20063;-70
2022/11/23 01:45:26;;;;;;;14.57;9.30;;;;;;;8.07;100.00;99493.50;10583274;28;20036;-70
2022/11/23 01:50:27;;;;;;;19.70;9.23;;;;;;;8.07;100.00;99490.81;10583712;28;20024;-70
2022/11/23 01:55:27;;;;;;;23.30;10.20;;;;;;;8.12;100.00;99494.53;10582292;28;20086;-70
2022/11/23 02:00:28;;;;;;;12.60;6.38;;;;;;;8.12;100.00;99502.59;10582280;28;20114;-70
2022/11/23 02:05:34;;;;;;;9.43;6.90;;;;;;;8.08;100.00;99493.31;10583495;28;20138;-70
2022/11/23 02:10:34;;;;;;;10.07;6.67;;;;;;;8.04;100.00;99505.56;10563959;28;20079;-70
2022/11/23 02:15:35;;;;;;;12.77;6.93;;;;;;;8.02;100.00;99502.25;10581588;28;20413;-70
2022/11/23 02:20:35;;;;;;;15.02;7.80;;;;;;;7.86;100.00;99505.44;10563726;28;20106;-70
2022/11/23 02:25:44;;;;;;;9.30;6.20;;;;;;;7.66;100.00;99486.66;10564801;28;20027;-70
2022/11/23 02:30:46;;;;;;;11.57;8.90;;;;;;;7.56;100.00;99508.66;10585161;28;20051;-70
2022/11/23 02:35:54;;;;;;;12.98;9.82;;;;;;;7.60;100.00;99499.13;10571623;28;20371;-70
2022/11/23 02:40:55;;;;;;;9.10;8.05;;;;;;;7.62;100.00;99502.41;10572459;28;20045;-70
2022/11/23 02:45:56;;;;;;;17.02;10.27;;;;;;;7.72;100.00;99504.66;10571008;28;20035;-70
2022/11/23 02:50:57;;;;;;;15.10;7.50;;;;;;;7.78;100.00;99508.38;10570076;28;20469;-70
2022/11/23 02:55:57;;;;;;;24.80;13.70;;;;;;;7.80;100.00;99517.06;10588242;28;20097;-70
2022/11/23 03:00:57;;;;;;;18.30;11.40;;;;;;;7.89;100.00;99507.72;10571131;28;20067;-70
2022/11/23 03:05:58;;;;;;;12.18;10.98;;;;;;;7.92;100.00;99501.91;10588298;28;20386;-70
2022/11/23 03:11:00;;;;;;;17.58;10.02;;;;;;;7.99;100.00;99505.38;10589324;28;20189;-70
2022/11/23 03:16:01;;;;;;;24.52;10.90;;;;;;;8.04;100.00;99510.97;10587767;28;20073;-70
2022/11/23 03:21:05;;;;;;;9.60;6.35;;;;;;;8.02;100.00;99513.03;10570132;28;20066;-70
2022/11/23 03:26:06;;;;;;;13.20;9.82;;;;;;;8.08;100.00;99516.75;10588152;28;20035;-70
2022/11/23 03:31:06;;;;;;;8.55;7.60;;;;;;;8.09;100.00;99513.81;10587733;28;20540;-70
2022/11/23 03:36:07;;;;;;;9.15;7.55;;;;;;;8.11;100.00;99524.41;10586920;28;20035;-70
2022/11/23 03:41:08;;;;;;;10.98;9.40;;;;;;;8.12;100.00;99518.78;10588091;28;20032;-70
2022/11/23 03:46:08;;;;;;;11.45;9.45;;;;;;;8.14;100.00;99522.09;10586096;28;20376;-70
2022/11/23 03:51:09;;;;;;;15.90;10.27;;;;;;;8.18;100.00;99527.06;10569994;28;20043;-70
2022/11/23 03:56:09;;;;;;;11.13;9.95;;;;;;;8.16;100.00;99519.19;10568548;28;20027;-70
2022/11/23 04:01:09;;;;;;;11.18;8.98;;;;;;;8.12;100.00;99529.56;10569005;28;20146;-70
2022/11/23 04:06:10;;;;;;;10.45;8.15;;;;;;;8.21;100.00;99526.63;10570434;28;20413;-70
2022/11/23 04:11:10;;;;;;;11.10;9.18;;;;;;;8.26;100.00;99524.09;10586829;28;20067;-70
2022/11/23 04:16:11;;;;;;;11.70;9.73;;;;;;;8.30;100.00;99522.66;10585418;28;20032;-69
2022/11/23 04:21:11;;;;;;;14.18;6.05;;;;;;;8.25;100.00;99517.06;10585794;28;20028;-69
2022/11/23 04:26:11;;;;;;;13.57;7.15;;;;;;;8.24;100.00;99518.13;10586781;28;20379;-69
2022/11/23 04:31:12;;;;;;;22.50;8.02;;;;;;;8.21;100.00;99515.84;10566635;28;20112;-69
2022/11/23 04:36:12;;;;;;;17.50;7.03;;;;;;;8.24;100.00;99512.72;10585665;28;20028;-69
2022/11/23 04:41:13;;;;;;;12.43;6.13;;;;;;;8.24;100.00;99507.34;10584384;28;20054;-69
2022/11/23 04:46:13;;;;;;;12.05;7.53;;;;;;;8.19;100.00;99512.53;10584876;28;20031;-69
2022/11/23 04:51:15;;;;;;;13.00;6.35;;;;;;;8.20;100.00;99516.88;10583043;28;20024;-69
2022/11/23 04:56:15;;;;;;;11.82;6.47;;;;;;;8.12;100.00;99515.28;10583843;28;20490;-69
2022/11/23 05:01:15;;;;;;;7.97;5.45;;;;;;;8.12;100.00;99517.97;10566014;28;20048;-69
2022/11/23 05:06:16;;;;;;;13.95;4.05;;;;;;;8.11;100.00;99530.63;10585202;28;20059;-69
2022/11/23 05:11:16;;;;;;;15.10;4.93;;;;;;;8.10;100.00;99530.81;10583799;28;20154;-69
2022/11/23 05:16:17;;;;;;;14.75;6.13;;;;;;;8.15;100.00;99522.94;10584595;28;20455;-69
2022/11/23 05:21:17;;;;;;;11.15;5.57;;;;;;;8.23;100.00;99533.47;10583556;28;20028;-69
2022/11/23 05:26:18;;;;;;;6.20;5.55;;;;;;;8.09;100.00;99527.31;10565786;28;20534;-69
2022/11/23 05:31:18;;;;;;;9.52;5.60;;;;;;;7.99;100.00;99529.63;10583018;28;20040;-69
2022/11/23 05:36:19;;;;;;;12.48;5.18;;;;;;;7.84;100.00;99531.78;10582243;28;20028;-69
2022/11/23 05:41:19;;;;;;;5.93;5.25;;;;;;;7.88;100.00;99539.22;10583198;28;20073;-69
2022/11/23 05:46:19;;;;;;;11.90;4.78;;;;;;;7.93;100.00;99539.41;10581912;28;20038;-69
2022/11/23 05:51:20;;;;;;;16.60;6.00;;;;;;;7.89;100.00;99532.78;10564202;28;20497;-69
2022/11/23 05:56:20;;;;;;;13.32;5.63;;;;;;;7.87;100.00;99523.25;10583658;28;20035;-69
2022/11/23 06:01:21;;;;;;;18.05;6.63;;;;;;;7.84;100.00;99526.38;10563703;28;20055;-68
2022/11/23 06:06:21;;;;;;;21.95;6.15;;;;;;;7.81;100.00;99522.25;10582390;28;20118;-69
2022/11/23 06:11:21;;;;;;;14.68;5.97;;;;;;;7.75;100.00;99524.97;10581859;28;20036;-69
2022/11/23 06:16:22;;;;;;;17.08;6.35;;;;;;;7.55;100.00;99516.94;10581852;28;20478;-69
2022/11/23 06:21:22;;;;;;;13.85;5.70;;;;;;;7.38;100.00;99538.94;10579937;28;20065;-68
2022/11/23 06:26:24;;;;;;;15.63;5.28;;;;;;;7.28;100.00;99525.09;10581570;28;20038;-69
2022/11/23 06:31:24;;;;;;;11.88;4.13;;;;;;;7.08;100.00;99525.09;10580311;28;20039;-68
2022/11/23 06:36:24;;;;;;;14.55;5.43;;;;;;;6.92;100.00;99526.38;10581558;28;20484;-68
2022/11/23 06:41:25;;;;;;;11.77;4.00;;;;;;;6.84;100.00;99534.66;10563536;28;20118;-69
2022/11/23 06:46:25;;;;;;;10.60;4.35;;;;;;;6.81;100.00;99531.53;10581316;28;20437;-68
2022/11/23 06:51:26;;;;;;;19.10;4.70;;;;;;;6.77;100.00;99541.91;10581653;28;20378;-68
2022/11/23 06:56:26;;;;;;;12.93;4.82;;;;;;;6.81;100.00;99539.63;10580767;28;20031;-68
2022/11/23 07:01:27;;;;;;;10.77;4.60;;;;;;;6.89;100.00;99547.47;10561716;28;20077;-68
2022/11/23 07:06:27;;;;;;;16.40;5.00;;;;;;;7.06;100.00;99561.38;10578762;28;20023;-68
2022/11/23 07:11:28;;;;;;;17.75;4.15;;;;;;;7.17;100.00;99561.53;10562648;28;20035;-69
2022/11/23 07:16:28;;;;;;;9.65;4.25;;;;;;;7.25;100.00;99570.47;10564892;28;20395;-68
2022/11/23 07:21:28;;;;;;;9.02;3.25;;;;;;;7.23;100.00;99567.97;10554085;28;20055;-68
2022/11/23 07:26:29;;;;;;;10.02;4.00;;;;;;;7.25;100.00;99575.84;10569312;28;20053;-68
2022/11/23 07:31:29;;;;;;;10.32;4.45;;;;;;;7.38;100.00;99581.22;10586739;28;20027;-68
2022/11/23 07:36:30;;;;;;;6.68;3.20;;;;;;;7.48;100.00;99581.63;10588556;28;20055;-68
2022/11/23 07:41:30;;;;;;;18.42;3.40;;;;;;;7.48;100.00;99581.63;10585877;28;20031;-68
2022/11/23 07:46:31;;;;;;;18.05;4.88;;;;;;;7.55;100.00;99603.16;10586698;28;20023;-68
2022/11/23 07:51:31;;;;;;;8.40;4.30;;;;;;;7.55;100.00;99613.94;10586295;28;20043;-68
2022/11/23 07:56:32;;;;;;;9.05;4.03;;;;;;;7.63;100.00;99611.03;10585346;28;20035;-68
2022/11/23 08:01:32;;;;;;;18.50;6.35;;;;;;;7.66;100.00;99611.44;10568442;28;20499;-68
2022/11/23 08:06:32;;;;;;;6.30;4.15;;;;;;;7.68;100.00;99611.19;10586382;28;20034;-68
2022/11/23 08:11:33;;;;;;;6.25;3.42;;;;;;;7.61;100.00;99621.19;10586586;28;20486;-68
2022/11/23 08:16:33;;;;;;;6.53;3.05;;;;;;;7.61;100.00;99627.38;10567279;28;20112;-68
2022/11/23 08:21:33;;;;;;;19.95;5.15;;;;;;;7.56;100.00;99620.97;10585487;28;20172;-68
2022/11/23 08:26:34;;;;;;;8.30;3.78;;;;;;;7.78;100.00;99624.25;10586365;28;20032;-68
2022/11/23 08:31:34;;;;;;;6.18;2.70;;;;;;;7.92;100.00;99613.22;10549916;28;20035;-68
2022/11/23 08:36:36;;;;;;;5.85;2.90;;;;;;;7.82;100.00;99622.81;10584055;28;20131;-68
2022/11/23 08:41:37;;;;;;;9.10;3.47;;;;;;;7.80;100.00;99611.41;10583363;28;20042;-68
2022/11/23 08:46:37;;;;;;;19.65;3.63;;;;;;;8.12;100.00;99599.69;10584632;28;20027;-68
2022/11/23 08:51:38;;;;;;;10.25;4.03;;;;;;;9.55;100.00;99590.22;10582140;28;20032;-68
2022/11/23 08:56:38;;;;;;;15.48;4.13;;;;;;;10.16;100.00;99572.28;10565947;28;20081;-69
2022/11/23 09:01:38;;;;;;;14.63;4.25;;;;;;;10.35;100.00;99568.53;10565881;28;20134;-68
2022/11/23 09:06:39;;;;;;;10.57;3.55;;;;;;;10.37;100.00;99547.50;10583049;28;20028;-68
2022/11/23 09:11:39;;;;;;;8.07;4.20;;;;;;;10.46;100.00;99554.25;10565079;28;20138;-68
2022/11/23 09:16:40;;;;;;;20.42;3.75;;;;;;;10.52;100.00;99532.69;10583330;28;20035;-68
2022/11/23 09:21:41;;;;;;;6.53;2.85;;;;;;;10.56;100.00;99523.06;10564916;28;20414;-68
2022/11/23 09:26:42;;;;;;;20.35;4.90;;;;;;;10.60;100.00;99513.44;10565064;28;20031;-68
2022/11/23 09:31:42;;;;;;;12.55;4.68;;;;;;;10.71;100.00;99513.44;10564285;28;20043;-68
2022/11/23 09:36:43;;;;;;;10.95;4.30;;;;;;;10.62;100.00;99511.31;10583878;28;20027;-68
2022/11/23 09:42:12;;;;;;;7.45;3.30;;;;;;;10.51;100.00;99518.34;10563983;28;20389;-68
2022/11/23 09:47:43;;;;;;;8.82;3.03;;;;;;;10.74;100.00;99523.00;10582657;28;20035;-68
2022/11/23 09:52:45;;;;;;;8.90;3.97;;;;;;;10.46;100.00;99524.47;10582060;28;20032;-68
2022/11/23 09:57:45;;;;;;;20.63;3.22;;;;;;;10.40;100.00;99547.03;10563691;28;20035;-68
2022/11/23 10:02:45;;;;;;;9.23;3.70;;;;;;;10.20;100.00;99543.72;10582333;28;20134;-69
2022/11/23 10:07:55;;;;;;;11.05;5.10;;;;;;;9.52;100.00;99555.53;10564071;28;20062;-67
2022/11/23 10:13:03;;;;;;;12.23;5.40;;;;;;;9.13;100.00;99538.69;10547955;28;20118;-67
2022/11/23 10:18:12;;;;;;;12.35;4.80;;;;;;;9.04;100.00;99543.53;10582352;28;20028;-68
2022/11/23 10:23:31;;;;;;;12.57;5.20;;;;;;;8.47;100.00;99548.09;10581680;28;20032;-68
2022/11/23 10:28:31;;;;;;;15.73;6.22;;;;;;;8.37;100.00;99545.00;10581246;28;20050;-68
2022/11/23 10:33:38;;;;;;;9.43;5.07;;;;;;;8.28;100.00;99543.59;10579638;28;20046;-67
2022/11/23 10:38:39;;;;;;;9.63;6.00;;;;;;;8.18;100.00;99527.88;10579435;28;20034;-68
2022/11/23 10:44:16;;;;;;;11.30;6.82;;;;;;;8.21;100.00;99527.47;10580717;28;20035;-68
2022/11/23 10:49:20;;;;;;;;;;;;;;;7.99;100.00;99516.16;10582018;28;20038;-68
2022/11/23 10:54:28;;;;;;;5.97;4.53;;;;;;;8.32;100.00;99498.97;10587896;28;19915;-68
2022/11/23 10:59:34;;;;;;;13.32;5.45;;;;;;;8.55;100.00;99493.88;10588147;28;20032;-68
2022/11/23 11:04:35;;;;;;;12.88;5.88;;;;;;;8.48;100.00;99473.38;10587480;28;20058;-67
2022/11/23 11:09:35;;;;;;;12.55;5.30;;;;;;;8.60;100.00;99469.75;10588565;28;20046;-67
2022/11/23 11:14:36;;;;;;;12.18;5.65;;;;;;;8.91;100.00;99459.13;10589463;28;20385;-67
2022/11/23 11:19:38;;;;;;;6.68;5.65;;;;;;;9.14;100.00;99447.66;10571656;28;20028;-67
2022/11/23 11:24:42;;;;;;;8.20;4.15;;;;;;;9.25;100.00;99434.25;10588670;28;20118;-67
2022/11/23 11:29:42;;;;;;;8.68;4.18;;;;;;;9.24;100.00;99456.06;10587469;28;20115;-67
2022/11/23 11:35:14;;;;;;;7.63;3.97;;;;;;;9.20;100.00;99444.91;10587790;28;20115;-67
2022/11/23 11:40:35;;;;;;;4.13;3.05;;;;;;;8.99;100.00;99431.81;10587696;28;20256;-67
2022/11/23 11:45:45;;;;;;;8.07;3.92;;;;;;;9.14;100.00;99426.88;10587771;28;20122;-67
2022/11/23 11:50:55;;;;;;;9.25;3.42;;;;;;;8.94;100.00;99440.59;10570072;28;20044;-68
2022/11/23 11:56:11;;;;;;;6.35;3.50;;;;;;;8.79;100.00;99416.66;10568088;28;20032;-67
2022/11/23 12:01:46;;;;;;;6.03;3.83;;;;;;;8.97;100.00;99418.56;10584165;28;20161;-67
2022/11/23 12:06:52;;;;;;;5.00;2.78;;;;;;;9.02;100.00;99407.06;10585566;28;20020;-67
2022/11/23 12:11:53;;;;;;;8.35;3.47;;;;;;;8.95;100.00;99393.66;10568168;28;20038;-68
2022/11/23 12:16:58;;;;;;;12.20;3.65;;;;;;;8.97;100.00;99398.84;10567278;28;20059;-69
2022/11/23 12:22:05;;;;;;;7.88;3.60;;;;;;;9.01;100.00;99391.94;10584797;28;20464;-68
2022/11/23 12:27:36;;;;;;;7.47;2.95;;;;;;;8.99;100.00;99384.03;10568619;28;20027;-68
2022/11/23 12:32:51;;;;;;;10.63;3.97;;;;;;;8.92;100.00;99374.38;10567835;28;20036;-68
2022/11/23 12:37:57;;;;;;;13.32;4.13;;;;;;;8.86;100.00;99408.47;10585716;28;20555;-67
2022/11/23 12:43:05;;;;;;;8.40;2.83;;;;;;;8.81;100.00;99394.84;10584524;28;20161;-68
2022/11/23 12:48:23;;;;;;;7.53;3.42;;;;;;;8.44;100.00;99388.53;10566637;28;20268;-68
2022/11/23 12:53:40;;;;;;;11.98;3.75;;;;;;;8.05;100.00;99412.84;10566103;28;20474;-68
2022/11/23 12:58:41;;;;;;;10.25;2.75;;;;;;;7.96;100.00;99402.56;10566929;28;20027;-68
2022/11/23 13:04:19;;;;;;;9.27;2.65;;;;;;;7.67;100.00;99413.69;10565062;28;20052;-70
2022/11/23 13:09:28;;;;;;;;;;;;;;;7.57;100.00;99421.41;10584246;28;20039;-70
2022/11/23 13:14:41;;;;;;;7.50;3.45;;;;;;;7.53;100.00;99430.97;10583078;28;20398;-71
2022/11/23 13:19:57;;;;;;;24.23;4.18;;;;;;;7.53;100.00;99430.13;10566495;28;20149;-71
2022/11/23 13:25:00;;;;;;;5.20;2.75;;;;;;;7.49;100.00;99429.72;10566529;28;20118;-71
2022/11/23 13:30:07;;;;;;;9.98;3.85;;;;;;;7.48;100.00;99449.63;10583143;28;20490;-71
2022/11/23 13:35:20;;;;;;;0.52;0.52;;;;;;;7.56;100.00;99441.31;10564882;28;20032;-72
2022/11/23 13:40:33;;;;;;;0.40;0.40;;;;;;;7.58;100.00;99447.31;10582192;28;20068;-71
2022/11/23 13:45:35;;;;;;;0.40;0.40;;;;;;;7.57;100.00;99431.38;10565100;28;20056;-71
2022/11/23 13:50:36;;;;;;;0.47;0.47;;;;;;;7.54;100.00;99424.53;10580880;28;20497;-71
2022/11/23 13:55:37;;;;;;;0.30;0.30;;;;;;;7.57;100.00;99424.13;10564238;28;20378;-72
2022/11/23 14:00:48;;;;;;;0.57;0.57;;;;;;;7.58;100.00;99419.53;10563687;28;20038;-72
2022/11/23 14:05:48;;;;;;;0.45;0.45;;;;;;;7.56;100.00;99409.00;10580304;28;20059;-73
2022/11/23 14:10:49;;;;;;;0.43;0.43;;;;;;;7.58;100.00;99406.06;10582710;28;20391;-73
2022/11/23 14:16:00;;;;;;;0.60;0.60;;;;;;;7.60;100.00;99418.28;10580615;28;20288;-71
2022/11/23 14:21:09;;;;;;;0.82;0.82;;;;;;;7.60;100.00;99439.03;10563581;28;20036;-69
2022/11/23 14:26:24;;;;;;;0.40;0.40;;;;;;;7.60;100.00;99447.09;10567226;28;20028;-69
2022/11/23 14:31:45;;;;;;;0.75;0.75;;;;;;;7.65;100.00;99452.66;10590296;28;20035;-69
2022/11/23 14:36:52;;;;;;;0.98;0.98;;;;;;;7.62;100.00;99469.25;10571477;28;20054;-69
2022/11/23 14:41:54;;;;;;;0.40;0.40;;;;;;;7.66;100.00;99470.50;10556327;28;20024;-69
2022/11/23 14:47:07;;;;;;;0.50;0.50;;;;;;;7.65;100.00;99466.97;10572727;28;20341;-69
2022/11/23 14:52:14;;;;;;;0.40;0.40;;;;;;;7.73;100.00;99479.38;10572642;28;20032;-69
2022/11/23 14:57:14;;;;;;;0.52;0.52;;;;;;;7.78;100.00;99490.31;10571282;28;20055;-70
2022/11/23 15:02:30;;;;;;;0.40;0.40;;;;;;;7.82;100.00;99482.66;10570819;28;20119;-69
2022/11/23 15:08:10;;;;;;;0.30;0.30;;;;;;;7.85;100.00;99501.09;10590282;28;20383;-69
2022/11/23 15:13:25;;;;;;;0.40;0.40;;;;;;;7.82;100.00;99486.19;10541497;28;20056;-70
2022/11/23 15:18:38;;;;;;;0.30;0.30;;;;;;;7.86;100.00;99500.88;10589036;28;20095;-69
2022/11/23 15:23:49;;;;;;;0.40;0.40;;;;;;;7.94;100.00;99513.28;10572098;28;20039;-70
2022/11/23 15:28:49;;;;;;;1.13;1.08;;;;;;;7.93;100.00;99519.72;10570023;28;20028;-70
2022/11/23 15:33:55;;;;;;;0.40;0.40;;;;;;;7.95;100.00;99520.34;10570114;28;20465;-69
2022/11/23 15:38:56;;;;;;;0.30;0.30;;;;;;;8.04;100.00;99532.53;10568161;28;20371;-70
2022/11/23 15:43:57;;;;;;;0.50;0.50;;;;;;;8.02;100.00;99553.47;10569694;28;20034;-71
2022/11/23 15:48:58;;;;;;;0.28;0.28;;;;;;;7.99;100.00;99543.13;10552328;28;20482;-70
2022/11/23 15:53:59;;;;;;;0.60;0.60;;;;;;;8.10;100.00;99564.03;10587674;28;20035;-70
2022/11/23 15:59:01;;;;;;;1.55;1.55;;;;;;;8.11;100.00;99570.25;10568149;28;20028;-70
2022/11/23 16:04:03;;;;;;;0.40;0.40;;;;;;;8.14;100.00;99570.63;10552555;28;20043;-71
2022/11/23 16:09:32;;;;;;;0.30;0.30;;;;;;;8.18;100.00;99571.03;10584508;28;20444;-71
2022/11/23 16:14:33;;;;;;;0.40;0.40;;;;;;;8.12;100.00;99586.19;10585675;28;20027;-70
2022/11/23 16:19:33;;;;;;;0.30;0.30;;;;;;;8.15;100.00;99590.34;10567891;28;20032;-71
2022/11/23 16:24:34;;;;;;;0.30;0.30;;;;;;;8.10;100.00;99596.38;10586325;28;20036;-70
2022/11/23 16:29:35;;;;;;;0.40;0.40;;;;;;;8.07;100.00;99612.13;10582889;28;20040;-70
2022/11/23 16:34:35;;;;;;;0.40;0.40;;;;;;;8.02;100.00;99623.56;10584731;28;20031;-70
2022/11/23 16:39:36;;;;;;;0.40;0.40;;;;;;;8.00;100.00;99608.63;10566977;28;20035;-70
2022/11/23 16:44:36;;;;;;;0.47;0.47;;;;;;;7.91;100.00;99633.16;10585490;28;20036;-70
2022/11/23 16:49:36;;;;;;;0.38;0.38;;;;;;;7.96;100.00;99648.66;10566635;28;20039;-71
2022/11/23 16:54:37;;;;;;;1.10;1.10;;;;;;;7.93;100.00;99655.31;10584925;28;20471;-70
2022/11/23 16:59:37;;;;;;;0.40;0.40;;;;;;;7.84;100.00;99655.75;10565956;28;20142;-70
2022/11/23 17:04:38;;;;;;;0.35;0.35;;;;;;;7.82;100.00;99669.44;10583605;28;20077;-70
2022/11/23 17:09:38;;;;;;;0.57;0.57;;;;;;;7.82;100.00;99674.00;10584250;28;20047;-70
2022/11/23 17:14:39;;;;;;;0.68;0.68;;;;;;;7.81;100.00;99693.91;10584464;28;20455;-70
2022/11/23 17:19:39;;;;;;;0.50;0.50;;;;;;;7.80;100.00;99697.63;10549858;28;20080;-70
2022/11/23 17:24:41;;;;;;;0.50;0.50;;;;;;;7.77;100.00;99709.66;10584952;28;20110;-70
2022/11/23 17:29:42;;;;;;;0.43;0.43;;;;;;;7.76;100.00;99707.19;10565890;28;20076;-70
2022/11/23 17:34:42;;;;;;;0.98;0.98;;;;;;;7.66;100.00;99715.69;10565280;28;20035;-70
2022/11/23 17:39:43;;;;;;;0.30;0.30;;;;;;;7.62;100.00;99712.56;10583488;28;20378;-70
2022/11/23 17:44:44;;;;;;;0.40;0.40;;;;;;;7.59;100.00;99721.03;10583992;28;20129;-70
2022/11/23 17:49:44;;;;;;;0.90;0.90;;;;;;;7.52;100.00;99724.78;10582746;28;20032;-70
2022/11/23 17:54:45;;;;;;;4.60;4.22;;;;;;;7.51;100.00;99742.81;10564964;28;20122;-70
2022/11/23 17:59:45;;;;;;;0.30;0.30;;;;;;;7.52;100.00;99749.84;10581219;28;20168;-70
2022/11/23 18:04:46;;;;;;;1.70;1.70;;;;;;;7.46;100.00;99764.97;10581966;28;20130;-70
2022/11/23 18:09:47;;;;;;;0.40;0.40;;;;;;;7.37;100.00;99760.84;10582243;28;20031;-70
2022/11/23 18:14:48;;;;;;;0.47;0.47;;;;;;;7.36;100.00;99774.50;10564680;28;20101;-70
2022/11/23 18:19:48;;;;;;;0.63;0.63;;;;;;;7.36;100.00;99766.41;10563851;28;20116;-70
2022/11/23 18:24:49;;;;;;;0.75;0.75;;;;;;;7.35;100.00;99778.22;10579962;28;20056;-70
2022/11/23 18:29:49;;;;;;;0.50;0.50;;;;;;;7.30;100.00;99775.31;10581525;28;20034;-70
2022/11/23 18:34:50;;;;;;;3.08;2.97;;;;;;;7.36;100.00;99790.66;10581728;28;20374;-70
2022/11/23 18:39:50;;;;;;;1.80;1.70;;;;;;;7.36;100.00;99799.56;10563952;28;20039;-70
2022/11/23 18:44:51;;;;;;;0.75;0.75;;;;;;;7.36;100.00;99801.41;10581531;28;20486;-70
2022/11/23 18:49:51;;;;;;;0.55;0.55;;;;;;;7.32;100.00;99803.69;10582778;28;20027;-70
2022/11/23 18:54:52;;;;;;;0.32;0.32;;;;;;;7.32;100.00;99800.19;10582207;28;20067;-70
2022/11/23 18:59:52;;;;;;;0.75;0.75;;;;;;;7.30;100.00;99813.84;10563945;28;20024;-70
2022/11/23 19:04:53;;;;;;;2.55;2.45;;;;;;;7.28;100.00;99817.78;10580652;28;20566;-70
2022/11/23 19:09:53;;;;;;;0.50;0.50;;;;;;;7.31;100.00;99828.97;10562018;28;20031;-70
2022/11/23 19:14:53;;;;;;;0.45;0.45;;;;;;;7.36;100.00;99841.81;10570182;28;20027;-70
2022/11/23 19:19:54;;;;;;;4.75;1.88;;;;;;;7.54;100.00;99838.56;10571448;28;20032;-70
2022/11/23 19:24:55;;;;;;;0.40;0.40;;;;;;;7.64;100.00;99841.69;10589572;28;20028;-70
2022/11/23 19:29:55;;;;;;;1.05;1.05;;;;;;;7.61;100.00;99840.22;10570544;28;20063;-70
2022/11/23 19:34:55;;;;;;;0.57;0.57;;;;;;;7.57;100.00;99830.91;10569645;28;20043;-69
2022/11/23 19:39:56;;;;;;;0.50;0.50;;;;;;;7.55;100.00;99838.34;10587874;28;20467;-70
2022/11/23 19:44:56;;;;;;;0.50;0.50;;;;;;;7.56;100.00;99841.88;10587455;28;20039;-70
2022/11/23 19:49:57;;;;;;;1.15;1.15;;;;;;;7.68;100.00;99849.16;10568593;28;20039;-70
2022/11/23 19:54:58;;;;;;;0.55;0.55;;;;;;;7.93;100.00;99862.88;10587010;28;20053;-70
2022/11/23 19:59:59;;;;;;;0.43;0.43;;;;;;;8.06;100.00;99851.25;10587062;28;20028;-71
2022/11/23 20:05:00;;;;;;;0.40;0.40;;;;;;;7.89;100.00;99866.19;10551608;28;20060;-71
2022/11/23 20:10:00;;;;;;;0.30;0.30;;;;;;;7.74;100.00;99868.25;10568454;28;20134;-71
2022/11/23 20:15:02;;;;;;;0.43;0.43;;;;;;;7.69;100.00;99858.09;10586284;28;20046;-71
2022/11/23 20:20:03;;;;;;;2.08;1.95;;;;;;;7.75;100.00;99878.81;10585956;28;20042;-71
2022/11/23 20:25:04;;;;;;;0.40;0.40;;;;;;;7.72;100.00;99889.16;10585379;28;20387;-71
2022/11/23 20:30:05;;;;;;;0.50;0.50;;;;;;;7.69;100.00;99885.84;10585792;28;20114;-71
2022/11/23 20:35:06;;;;;;;0.55;0.55;;;;;;;7.72;100.00;99911.53;10585098;28;20469;-71
2022/11/23 20:40:07;;;;;;;0.35;0.35;;;;;;;7.68;100.00;99900.34;10586147;28;20032;-70
2022/11/23 20:45:08;;;;;;;0.40;0.40;;;;;;;7.66;100.00;99921.28;10585101;28;20451;-70
2022/11/23 20:50:09;;;;;;;0.70;0.70;;;;;;;7.69;100.00;99920.88;10585475;28;20519;-70
2022/11/23 20:55:09;;;;;;;0.70;0.70;;;;;;;7.68;100.00;99942.63;10583507;28;20456;-70
2022/11/23 21:00:10;;;;;;;3.60;3.40;;;;;;;7.72;100.00;99941.19;10565911;28;20070;-71
2022/11/23 21:05:10;;;;;;;4.20;3.90;;;;;;;7.77;100.00;99946.00;10585652;28;20391;-70
2022/11/23 21:14:05;;;;;;;0.30;0.30;;;;;;;7.79;100.00;99958.22;10584162;28;20131;-70
2022/11/23 21:15:31;;;;;;;1.27;1.27;;;;;;;7.76;100.00;99960.50;10567618;28;20067;-70
2022/11/23 21:20:32;;;;;;;0.50;0.50;;;;;;;7.71;100.00;99968.34;10565316;28;20084;-70
2022/11/23 21:25:34;;;;;;;17.08;6.80;;;;;;;7.66;100.00;99972.50;10584628;28;20050;-70
2022/11/23 21:30:34;;;;;;;9.60;5.78;;;;;;;7.67;100.00;99989.47;10582366;28;20035;-70
2022/11/23 21:35:35;;;;;;;16.40;7.07;;;;;;;7.59;100.00;99987.78;10583039;28;20036;-70
2022/11/23 21:40:35;;;;;;;29.45;7.95;;;;;;;7.70;100.00;99989.09;10584267;28;20440;-70
2022/11/23 21:45:36;;;;;;;13.23;5.20;;;;;;;7.71;100.00;100001.50;10583225;28;20084;-70
2022/11/23 21:50:36;;;;;;;22.58;6.10;;;;;;;7.67;100.00;100003.78;10564811;28;20138;-70
2022/11/23 21:55:36;;;;;;;27.42;6.93;;;;;;;7.72;100.00;100010.44;10581980;28;20034;-70
2022/11/23 22:00:37;;;;;;;8.63;4.40;;;;;;;7.74;100.00;100028.06;10583106;28;20120;-70
2022/11/23 22:05:37;;;;;;;18.55;7.40;;;;;;;7.88;100.00;100028.94;10580639;28;20504;-70
2022/11/23 22:10:38;;;;;;;14.75;4.60;;;;;;;7.89;100.00;100030.63;10564450;28;20031;-70
2022/11/23 22:15:38;;;;;;;24.63;6.80;;;;;;;7.88;100.00;100031.63;10581649;28;20043;-70
2022/11/23 22:20:38;;;;;;;16.85;5.90;;;;;;;7.90;100.00;100040.38;10581327;28;20036;-69
2022/11/23 22:25:39;;;;;;;30.77;7.03;;;;;;;8.00;100.00;100048.06;10564395;28;20063;-71
2022/11/23 22:30:39;;;;;;;27.25;7.40;;;;;;;8.07;100.00;100055.19;10563620;28;20123;-70
2022/11/23 22:35:40;;;;;;;20.17;6.78;;;;;;;8.20;100.00;100072.41;10581695;28;20043;-70
2022/11/23 22:40:46;;;;;;;29.25;6.68;;;;;;;8.18;100.00;100074.50;10547941;28;20031;-69
2022/11/23 22:45:47;;;;;;;13.05;5.38;;;;;;;8.24;100.00;100089.88;10582355;28;20040;-70
2022/11/23 22:51:03;;;;;;;27.15;6.60;;;;;;;8.27;100.00;100092.16;10589423;28;20512;-72
2022/11/23 22:56:03;;;;;;;23.63;5.50;;;;;;;8.25;100.00;100088.84;10572583;28;20035;-71
2022/11/23 23:01:12;;;;;;;21.98;5.13;;;;;;;8.23;100.00;100074.69;10588957;28;20035;-71
2022/11/23 23:06:15;;;;;;;20.65;7.03;;;;;;;8.27;100.00;100068.72;10572172;28;20093;-71
2022/11/23 23:11:15;;;;;;;16.85;5.18;;;;;;;8.27;100.00;100075.97;10571006;28;20459;-71
2022/11/23 23:16:16;;;;;;;14.00;4.70;;;;;;;8.27;100.00;100066.03;10564378;28;20063;-71
2022/11/23 23:21:18;;;;;;;13.07;5.25;;;;;;;8.28;100.00;100064.16;10570509;28;20031;-71